sensor_id;sensor_type;location;lat;lon;timestamp;P1;durP1;ratioP1;P2;durP2;ratioP2
45388;SDS011;31127;52.078;4.370;2023-05-10T00:01:37;20.88;;;10.18;;
45388;SDS011;31127;52.078;4.370;2023-05-10T00:06:52;24.70;;;10.25;;
45388;SDS011;31127;52.078;4.370;2023-05-10T00:11:48;23.90;;;10.88;;
45388;SDS011;31127;52.078;4.370;2023-05-10T00:16:44;23.30;;;11.27;;
45388;SDS011;31127;52.078;4.370;2023-05-10T00:21:39;27.65;;;12.93;;
45388;SDS011;31127;52.078;4.370;2023-05-10T00:26:54;28.77;;;11.77;;
45388;SDS011;31127;52.078;4.370;2023-05-10T00:31:50;23.25;;;12.55;;
45388;SDS011;31127;52.078;4.370;2023-05-10T00:36:45;26.40;;;12.73;;
45388;SDS011;31127;52.078;4.370;2023-05-10T00:41:41;33.93;;;12.93;;
45388;SDS011;31127;52.078;4.370;2023-05-10T00:46:36;24.38;;;11.07;;
45388;SDS011;31127;52.078;4.370;2023-05-10T00:51:32;25.87;;;12.60;;
45388;SDS011;31127;52.078;4.370;2023-05-10T00:56:28;24.08;;;11.75;;
45388;SDS011;31127;52.078;4.370;2023-05-10T01:01:46;20.83;;;10.48;;
45388;SDS011;31127;52.078;4.370;2023-05-10T01:06:42;25.02;;;10.95;;
45388;SDS011;31127;52.078;4.370;2023-05-10T01:11:38;19.80;;;10.20;;
45388;SDS011;31127;52.078;4.370;2023-05-10T01:16:35;24.73;;;11.88;;
45388;SDS011;31127;52.078;4.370;2023-05-10T01:36:48;29.00;;;14.10;;
45388;SDS011;31127;52.078;4.370;2023-05-10T01:42:10;29.40;;;12.88;;
45388;SDS011;31127;52.078;4.370;2023-05-10T01:52:30;26.73;;;14.15;;
45388;SDS011;31127;52.078;4.370;2023-05-10T01:57:28;34.60;;;13.27;;
45388;SDS011;31127;52.078;4.370;2023-05-10T02:02:27;25.25;;;12.57;;
45388;SDS011;31127;52.078;4.370;2023-05-10T02:07:23;30.88;;;14.00;;
45388;SDS011;31127;52.078;4.370;2023-05-10T02:12:40;36.60;;;14.35;;
45388;SDS011;31127;52.078;4.370;2023-05-10T02:17:56;41.65;;;14.38;;
45388;SDS011;31127;52.078;4.370;2023-05-10T02:22:54;23.08;;;12.63;;
45388;SDS011;31127;52.078;4.370;2023-05-10T02:27:50;29.73;;;13.88;;
45388;SDS011;31127;52.078;4.370;2023-05-10T02:32:47;27.45;;;13.93;;
45388;SDS011;31127;52.078;4.370;2023-05-10T02:38:03;26.15;;;14.00;;
45388;SDS011;31127;52.078;4.370;2023-05-10T02:42:59;30.90;;;11.55;;
45388;SDS011;31127;52.078;4.370;2023-05-10T02:47:56;22.30;;;11.43;;
45388;SDS011;31127;52.078;4.370;2023-05-10T02:53:15;21.60;;;10.50;;
45388;SDS011;31127;52.078;4.370;2023-05-10T02:58:11;27.80;;;11.55;;
45388;SDS011;31127;52.078;4.370;2023-05-10T03:03:06;23.40;;;10.27;;
45388;SDS011;31127;52.078;4.370;2023-05-10T03:08:02;27.52;;;12.27;;
45388;SDS011;31127;52.078;4.370;2023-05-10T03:13:06;26.55;;;12.60;;
45388;SDS011;31127;52.078;4.370;2023-05-10T03:18:23;24.98;;;11.75;;
45388;SDS011;31127;52.078;4.370;2023-05-10T03:23:30;24.88;;;12.38;;
45388;SDS011;31127;52.078;4.370;2023-05-10T03:28:30;29.20;;;13.25;;
45388;SDS011;31127;52.078;4.370;2023-05-10T03:33:50;28.30;;;12.35;;
45388;SDS011;31127;52.078;4.370;2023-05-10T03:38:50;24.55;;;11.38;;
45388;SDS011;31127;52.078;4.370;2023-05-10T03:43:47;18.75;;;10.50;;
45388;SDS011;31127;52.078;4.370;2023-05-10T03:48:42;28.63;;;12.43;;
45388;SDS011;31127;52.078;4.370;2023-05-10T03:53:38;22.42;;;11.23;;
45388;SDS011;31127;52.078;4.370;2023-05-10T03:58:33;27.08;;;13.25;;
45388;SDS011;31127;52.078;4.370;2023-05-10T04:03:29;24.85;;;12.02;;
45388;SDS011;31127;52.078;4.370;2023-05-10T04:08:44;21.95;;;10.15;;
45388;SDS011;31127;52.078;4.370;2023-05-10T04:14:00;24.10;;;10.77;;
45388;SDS011;31127;52.078;4.370;2023-05-10T04:18:56;27.77;;;11.40;;
45388;SDS011;31127;52.078;4.370;2023-05-10T04:23:51;47.42;;;10.13;;
45388;SDS011;31127;52.078;4.370;2023-05-10T04:28:47;33.35;;;8.02;;
45388;SDS011;31127;52.078;4.370;2023-05-10T04:33:42;36.53;;;6.85;;
45388;SDS011;31127;52.078;4.370;2023-05-10T04:38:38;31.20;;;6.28;;
45388;SDS011;31127;52.078;4.370;2023-05-10T04:43:33;42.92;;;6.57;;
45388;SDS011;31127;52.078;4.370;2023-05-10T04:48:29;47.20;;;7.07;;
45388;SDS011;31127;52.078;4.370;2023-05-10T04:53:24;17.20;;;4.88;;
45388;SDS011;31127;52.078;4.370;2023-05-10T04:58:20;14.38;;;4.57;;
45388;SDS011;31127;52.078;4.370;2023-05-10T05:03:16;12.25;;;4.07;;
45388;SDS011;31127;52.078;4.370;2023-05-10T05:08:11;11.13;;;4.95;;
45388;SDS011;31127;52.078;4.370;2023-05-10T05:13:06;9.73;;;4.55;;
45388;SDS011;31127;52.078;4.370;2023-05-10T05:18:02;7.63;;;3.58;;
45388;SDS011;31127;52.078;4.370;2023-05-10T05:22:57;9.68;;;5.43;;
45388;SDS011;31127;52.078;4.370;2023-05-10T05:27:53;8.43;;;3.80;;
45388;SDS011;31127;52.078;4.370;2023-05-10T05:32:48;7.10;;;4.00;;
45388;SDS011;31127;52.078;4.370;2023-05-10T05:37:44;7.97;;;3.67;;
45388;SDS011;31127;52.078;4.370;2023-05-10T05:42:39;7.90;;;4.27;;
45388;SDS011;31127;52.078;4.370;2023-05-10T05:47:35;6.35;;;3.22;;
45388;SDS011;31127;52.078;4.370;2023-05-10T05:52:30;5.43;;;3.15;;
45388;SDS011;31127;52.078;4.370;2023-05-10T05:57:26;5.03;;;2.80;;
45388;SDS011;31127;52.078;4.370;2023-05-10T06:02:21;7.38;;;2.60;;
45388;SDS011;31127;52.078;4.370;2023-05-10T06:07:17;3.95;;;2.40;;
45388;SDS011;31127;52.078;4.370;2023-05-10T06:12:12;3.33;;;2.27;;
45388;SDS011;31127;52.078;4.370;2023-05-10T06:17:07;4.63;;;3.27;;
45388;SDS011;31127;52.078;4.370;2023-05-10T06:22:03;6.35;;;3.67;;
45388;SDS011;31127;52.078;4.370;2023-05-10T06:27:19;10.00;;;4.93;;
45388;SDS011;31127;52.078;4.370;2023-05-10T06:32:34;5.60;;;3.60;;
45388;SDS011;31127;52.078;4.370;2023-05-10T06:37:29;6.97;;;4.05;;
45388;SDS011;31127;52.078;4.370;2023-05-10T06:42:25;7.28;;;4.18;;
45388;SDS011;31127;52.078;4.370;2023-05-10T06:47:21;7.93;;;3.97;;
45388;SDS011;31127;52.078;4.370;2023-05-10T06:52:36;9.02;;;4.40;;
45388;SDS011;31127;52.078;4.370;2023-05-10T06:57:32;9.68;;;5.68;;
45388;SDS011;31127;52.078;4.370;2023-05-10T07:02:47;6.40;;;4.28;;
45388;SDS011;31127;52.078;4.370;2023-05-10T07:08:03;10.45;;;5.05;;
45388;SDS011;31127;52.078;4.370;2023-05-10T07:12:58;10.65;;;4.47;;
45388;SDS011;31127;52.078;4.370;2023-05-10T07:18:14;8.30;;;3.17;;
45388;SDS011;31127;52.078;4.370;2023-05-10T07:23:09;7.80;;;4.15;;
45388;SDS011;31127;52.078;4.370;2023-05-10T07:28:05;5.13;;;2.83;;
45388;SDS011;31127;52.078;4.370;2023-05-10T07:33:00;5.75;;;3.15;;
45388;SDS011;31127;52.078;4.370;2023-05-10T07:37:56;5.60;;;3.10;;
45388;SDS011;31127;52.078;4.370;2023-05-10T07:43:11;4.10;;;2.80;;
45388;SDS011;31127;52.078;4.370;2023-05-10T07:48:07;3.85;;;2.60;;
45388;SDS011;31127;52.078;4.370;2023-05-10T07:53:02;3.55;;;2.10;;
45388;SDS011;31127;52.078;4.370;2023-05-10T07:57:58;3.75;;;2.00;;
45388;SDS011;31127;52.078;4.370;2023-05-10T08:02:56;3.05;;;2.00;;
45388;SDS011;31127;52.078;4.370;2023-05-10T08:07:51;3.97;;;2.75;;
45388;SDS011;31127;52.078;4.370;2023-05-10T08:12:47;3.42;;;2.38;;
45388;SDS011;31127;52.078;4.370;2023-05-10T08:17:43;2.67;;;1.50;;
45388;SDS011;31127;52.078;4.370;2023-05-10T08:22:38;3.40;;;2.10;;
45388;SDS011;31127;52.078;4.370;2023-05-10T08:27:54;2.72;;;1.80;;
45388;SDS011;31127;52.078;4.370;2023-05-10T08:32:49;5.00;;;2.22;;
45388;SDS011;31127;52.078;4.370;2023-05-10T08:37:45;4.20;;;2.83;;
45388;SDS011;31127;52.078;4.370;2023-05-10T08:42:42;7.10;;;2.92;;
45388;SDS011;31127;52.078;4.370;2023-05-10T08:47:38;9.52;;;4.47;;
45388;SDS011;31127;52.078;4.370;2023-05-10T08:52:34;8.23;;;3.97;;
45388;SDS011;31127;52.078;4.370;2023-05-10T08:57:33;12.73;;;6.32;;
45388;SDS011;31127;52.078;4.370;2023-05-10T09:02:29;9.90;;;4.73;;
45388;SDS011;31127;52.078;4.370;2023-05-10T09:07:25;12.05;;;5.22;;
45388;SDS011;31127;52.078;4.370;2023-05-10T09:12:20;9.45;;;4.55;;
45388;SDS011;31127;52.078;4.370;2023-05-10T09:17:16;9.95;;;5.15;;
45388;SDS011;31127;52.078;4.370;2023-05-10T09:22:31;15.55;;;4.68;;
45388;SDS011;31127;52.078;4.370;2023-05-10T09:27:27;11.73;;;4.70;;
45388;SDS011;31127;52.078;4.370;2023-05-10T09:32:27;10.75;;;4.88;;
45388;SDS011;31127;52.078;4.370;2023-05-10T09:37:51;10.65;;;4.60;;
45388;SDS011;31127;52.078;4.370;2023-05-10T09:47:48;8.55;;;5.22;;
45388;SDS011;31127;52.078;4.370;2023-05-10T09:52:53;7.85;;;4.72;;
45388;SDS011;31127;52.078;4.370;2023-05-10T09:58:09;9.00;;;4.85;;
45388;SDS011;31127;52.078;4.370;2023-05-10T10:03:24;13.20;;;5.45;;
45388;SDS011;31127;52.078;4.370;2023-05-10T10:08:20;8.52;;;5.00;;
45388;SDS011;31127;52.078;4.370;2023-05-10T10:13:37;14.82;;;6.78;;
45388;SDS011;31127;52.078;4.370;2023-05-10T10:18:32;12.60;;;6.05;;
45388;SDS011;31127;52.078;4.370;2023-05-10T10:23:28;15.13;;;6.55;;
45388;SDS011;31127;52.078;4.370;2023-05-10T10:28:32;11.23;;;5.78;;
45388;SDS011;31127;52.078;4.370;2023-05-10T10:49:26;8.13;;;4.70;;
45388;SDS011;31127;52.078;4.370;2023-05-10T10:54:27;6.82;;;4.38;;
45388;SDS011;31127;52.078;4.370;2023-05-10T10:59:26;10.32;;;5.45;;
45388;SDS011;31127;52.078;4.370;2023-05-10T11:04:22;9.43;;;5.57;;
45388;SDS011;31127;52.078;4.370;2023-05-10T11:09:19;9.68;;;5.78;;
45388;SDS011;31127;52.078;4.370;2023-05-10T11:14:17;10.05;;;5.68;;
45388;SDS011;31127;52.078;4.370;2023-05-10T11:19:15;9.73;;;4.90;;
45388;SDS011;31127;52.078;4.370;2023-05-10T11:24:14;15.55;;;6.63;;
45388;SDS011;31127;52.078;4.370;2023-05-10T11:29:11;11.63;;;5.30;;
45388;SDS011;31127;52.078;4.370;2023-05-10T11:34:07;14.93;;;5.68;;
45388;SDS011;31127;52.078;4.370;2023-05-10T11:39:29;9.75;;;5.22;;
45388;SDS011;31127;52.078;4.370;2023-05-10T11:44:45;8.73;;;4.90;;
45388;SDS011;31127;52.078;4.370;2023-05-10T11:49:43;10.40;;;5.00;;
45388;SDS011;31127;52.078;4.370;2023-05-10T11:54:45;13.55;;;5.78;;
45388;SDS011;31127;52.078;4.370;2023-05-10T11:59:41;11.48;;;5.45;;
45388;SDS011;31127;52.078;4.370;2023-05-10T12:04:36;12.82;;;6.25;;
45388;SDS011;31127;52.078;4.370;2023-05-10T12:09:32;9.40;;;5.15;;
45388;SDS011;31127;52.078;4.370;2023-05-10T12:14:50;14.77;;;5.53;;
45388;SDS011;31127;52.078;4.370;2023-05-10T12:25:34;11.00;;;5.35;;
45388;SDS011;31127;52.078;4.370;2023-05-10T12:30:49;13.05;;;5.43;;
45388;SDS011;31127;52.078;4.370;2023-05-10T12:35:49;14.00;;;6.40;;
45388;SDS011;31127;52.078;4.370;2023-05-10T12:40:45;10.00;;;4.90;;
45388;SDS011;31127;52.078;4.370;2023-05-10T12:51:02;10.73;;;6.05;;
45388;SDS011;31127;52.078;4.370;2023-05-10T12:56:18;8.73;;;4.88;;
45388;SDS011;31127;52.078;4.370;2023-05-10T13:01:14;7.85;;;4.70;;
45388;SDS011;31127;52.078;4.370;2023-05-10T13:06:29;9.65;;;4.50;;
45388;SDS011;31127;52.078;4.370;2023-05-10T13:11:45;6.93;;;4.72;;
45388;SDS011;31127;52.078;4.370;2023-05-10T13:16:40;6.72;;;3.80;;
45388;SDS011;31127;52.078;4.370;2023-05-10T13:21:56;4.88;;;3.15;;
45388;SDS011;31127;52.078;4.370;2023-05-10T13:26:51;6.45;;;3.08;;
45388;SDS011;31127;52.078;4.370;2023-05-10T13:31:47;3.88;;;2.97;;
45388;SDS011;31127;52.078;4.370;2023-05-10T13:37:03;3.17;;;2.05;;
45388;SDS011;31127;52.078;4.370;2023-05-10T13:41:58;3.35;;;2.20;;
45388;SDS011;31127;52.078;4.370;2023-05-10T13:47:13;2.55;;;1.45;;
45388;SDS011;31127;52.078;4.370;2023-05-10T13:52:09;4.20;;;2.38;;
45388;SDS011;31127;52.078;4.370;2023-05-10T13:57:05;3.97;;;2.47;;
45388;SDS011;31127;52.078;4.370;2023-05-10T14:02:01;3.75;;;2.42;;
45388;SDS011;31127;52.078;4.370;2023-05-10T14:07:16;3.35;;;2.28;;
45388;SDS011;31127;52.078;4.370;2023-05-10T14:12:32;4.35;;;2.10;;
45388;SDS011;31127;52.078;4.370;2023-05-10T14:17:27;5.10;;;2.63;;
45388;SDS011;31127;52.078;4.370;2023-05-10T14:22:23;4.72;;;3.00;;
45388;SDS011;31127;52.078;4.370;2023-05-10T14:27:19;4.70;;;2.97;;
45388;SDS011;31127;52.078;4.370;2023-05-10T14:32:35;4.60;;;3.05;;
45388;SDS011;31127;52.078;4.370;2023-05-10T14:37:31;3.50;;;2.42;;
45388;SDS011;31127;52.078;4.370;2023-05-10T14:42:27;3.10;;;2.55;;
45388;SDS011;31127;52.078;4.370;2023-05-10T14:47:23;2.67;;;2.08;;
45388;SDS011;31127;52.078;4.370;2023-05-10T14:52:39;4.75;;;2.33;;
45388;SDS011;31127;52.078;4.370;2023-05-10T14:57:34;2.78;;;2.38;;
45388;SDS011;31127;52.078;4.370;2023-05-10T15:02:33;4.43;;;3.13;;
45388;SDS011;31127;52.078;4.370;2023-05-10T15:07:28;4.60;;;3.25;;
45388;SDS011;31127;52.078;4.370;2023-05-10T15:12:23;4.37;;;2.97;;
45388;SDS011;31127;52.078;4.370;2023-05-10T15:17:19;4.05;;;3.10;;
45388;SDS011;31127;52.078;4.370;2023-05-10T15:22:15;4.22;;;3.03;;
45388;SDS011;31127;52.078;4.370;2023-05-10T15:27:10;4.60;;;2.88;;
45388;SDS011;31127;52.078;4.370;2023-05-10T15:32:05;5.20;;;3.85;;
45388;SDS011;31127;52.078;4.370;2023-05-10T15:37:01;6.43;;;3.90;;
45388;SDS011;31127;52.078;4.370;2023-05-10T15:42:17;8.25;;;4.88;;
45388;SDS011;31127;52.078;4.370;2023-05-10T15:47:12;7.68;;;4.80;;
45388;SDS011;31127;52.078;4.370;2023-05-10T15:52:27;16.75;;;6.40;;
45388;SDS011;31127;52.078;4.370;2023-05-10T15:57:23;11.90;;;6.45;;
45388;SDS011;31127;52.078;4.370;2023-05-10T16:02:19;14.10;;;6.35;;
45388;SDS011;31127;52.078;4.370;2023-05-10T16:07:15;10.32;;;6.50;;
45388;SDS011;31127;52.078;4.370;2023-05-10T16:12:11;12.33;;;6.37;;
45388;SDS011;31127;52.078;4.370;2023-05-10T16:17:26;10.80;;;5.40;;
45388;SDS011;31127;52.078;4.370;2023-05-10T16:22:22;12.45;;;7.20;;
45388;SDS011;31127;52.078;4.370;2023-05-10T16:27:21;9.68;;;5.53;;
45388;SDS011;31127;52.078;4.370;2023-05-10T16:32:16;10.57;;;6.43;;
45388;SDS011;31127;52.078;4.370;2023-05-10T16:37:21;12.98;;;5.75;;
45388;SDS011;31127;52.078;4.370;2023-05-10T16:42:16;9.77;;;4.77;;
45388;SDS011;31127;52.078;4.370;2023-05-10T16:47:12;11.52;;;5.35;;
45388;SDS011;31127;52.078;4.370;2023-05-10T16:52:07;9.15;;;4.90;;
45388;SDS011;31127;52.078;4.370;2023-05-10T16:57:03;8.85;;;4.90;;
45388;SDS011;31127;52.078;4.370;2023-05-10T17:01:58;11.93;;;5.72;;
45388;SDS011;31127;52.078;4.370;2023-05-10T17:06:54;9.90;;;5.13;;
45388;SDS011;31127;52.078;4.370;2023-05-10T17:12:10;9.57;;;4.50;;
45388;SDS011;31127;52.078;4.370;2023-05-10T17:17:05;10.05;;;5.05;;
45388;SDS011;31127;52.078;4.370;2023-05-10T17:22:01;7.95;;;3.90;;
45388;SDS011;31127;52.078;4.370;2023-05-10T17:26:56;8.38;;;4.68;;
45388;SDS011;31127;52.078;4.370;2023-05-10T17:32:12;7.32;;;3.97;;
45388;SDS011;31127;52.078;4.370;2023-05-10T17:37:07;7.18;;;4.22;;
45388;SDS011;31127;52.078;4.370;2023-05-10T17:42:03;5.55;;;3.53;;
45388;SDS011;31127;52.078;4.370;2023-05-10T17:46:58;7.22;;;3.92;;
45388;SDS011;31127;52.078;4.370;2023-05-10T17:51:54;8.80;;;4.00;;
45388;SDS011;31127;52.078;4.370;2023-05-10T17:56:49;7.53;;;3.87;;
45388;SDS011;31127;52.078;4.370;2023-05-10T18:01:45;9.43;;;4.03;;
45388;SDS011;31127;52.078;4.370;2023-05-10T18:06:41;7.28;;;3.78;;
45388;SDS011;31127;52.078;4.370;2023-05-10T18:11:36;8.43;;;4.80;;
45388;SDS011;31127;52.078;4.370;2023-05-10T18:16:33;8.30;;;4.28;;
45388;SDS011;31127;52.078;4.370;2023-05-10T18:21:29;8.57;;;3.58;;
45388;SDS011;31127;52.078;4.370;2023-05-10T18:26:44;10.52;;;4.22;;
45388;SDS011;31127;52.078;4.370;2023-05-10T18:31:39;10.18;;;4.97;;
45388;SDS011;31127;52.078;4.370;2023-05-10T18:36:35;8.45;;;4.20;;
45388;SDS011;31127;52.078;4.370;2023-05-10T18:41:30;8.60;;;4.05;;
45388;SDS011;31127;52.078;4.370;2023-05-10T18:46:26;8.30;;;3.60;;
45388;SDS011;31127;52.078;4.370;2023-05-10T18:51:43;7.28;;;3.88;;
45388;SDS011;31127;52.078;4.370;2023-05-10T18:56:39;10.20;;;4.65;;
45388;SDS011;31127;52.078;4.370;2023-05-10T19:01:44;11.75;;;5.35;;
45388;SDS011;31127;52.078;4.370;2023-05-10T19:06:40;11.55;;;4.75;;
45388;SDS011;31127;52.078;4.370;2023-05-10T19:11:55;8.65;;;4.50;;
45388;SDS011;31127;52.078;4.370;2023-05-10T19:17:00;10.80;;;4.95;;
45388;SDS011;31127;52.078;4.370;2023-05-10T19:22:05;11.63;;;5.17;;
45388;SDS011;31127;52.078;4.370;2023-05-10T19:27:02;14.18;;;6.35;;
45388;SDS011;31127;52.078;4.370;2023-05-10T19:31:58;14.75;;;6.15;;
45388;SDS011;31127;52.078;4.370;2023-05-10T19:36:55;14.80;;;6.18;;
45388;SDS011;31127;52.078;4.370;2023-05-10T19:42:00;13.52;;;5.57;;
45388;SDS011;31127;52.078;4.370;2023-05-10T19:47:17;13.13;;;5.93;;
45388;SDS011;31127;52.078;4.370;2023-05-10T19:52:13;11.05;;;5.53;;
45388;SDS011;31127;52.078;4.370;2023-05-10T19:57:09;13.07;;;5.75;;
45388;SDS011;31127;52.078;4.370;2023-05-10T20:02:05;15.60;;;6.82;;
45388;SDS011;31127;52.078;4.370;2023-05-10T20:07:01;13.30;;;6.05;;
45388;SDS011;31127;52.078;4.370;2023-05-10T20:11:57;12.43;;;5.85;;
45388;SDS011;31127;52.078;4.370;2023-05-10T20:16:53;9.80;;;4.95;;
45388;SDS011;31127;52.078;4.370;2023-05-10T20:21:49;6.95;;;3.88;;
45388;SDS011;31127;52.078;4.370;2023-05-10T20:27:08;11.20;;;4.30;;
45388;SDS011;31127;52.078;4.370;2023-05-10T20:37:24;16.67;;;9.55;;
45388;SDS011;31127;52.078;4.370;2023-05-10T20:42:22;8.18;;;3.47;;
45388;SDS011;31127;52.078;4.370;2023-05-10T20:47:17;6.07;;;3.75;;
45388;SDS011;31127;52.078;4.370;2023-05-10T20:52:13;10.50;;;5.20;;
45388;SDS011;31127;52.078;4.370;2023-05-10T20:57:09;26.35;;;12.57;;
45388;SDS011;31127;52.078;4.370;2023-05-10T21:02:06;7.38;;;3.97;;
45388;SDS011;31127;52.078;4.370;2023-05-10T21:07:22;5.10;;;3.25;;
45388;SDS011;31127;52.078;4.370;2023-05-10T21:12:37;6.07;;;3.20;;
45388;SDS011;31127;52.078;4.370;2023-05-10T21:17:53;6.45;;;3.47;;
45388;SDS011;31127;52.078;4.370;2023-05-10T21:22:48;6.55;;;3.95;;
45388;SDS011;31127;52.078;4.370;2023-05-10T21:27:43;6.30;;;3.57;;
45388;SDS011;31127;52.078;4.370;2023-05-10T21:32:39;8.03;;;3.50;;
45388;SDS011;31127;52.078;4.370;2023-05-10T21:37:34;7.70;;;4.88;;
45388;SDS011;31127;52.078;4.370;2023-05-10T21:42:30;7.23;;;3.97;;
45388;SDS011;31127;52.078;4.370;2023-05-10T21:47:26;7.28;;;3.60;;
45388;SDS011;31127;52.078;4.370;2023-05-10T21:52:21;7.65;;;4.30;;
45388;SDS011;31127;52.078;4.370;2023-05-10T21:57:16;10.43;;;4.73;;
45388;SDS011;31127;52.078;4.370;2023-05-10T22:02:12;8.88;;;4.88;;
45388;SDS011;31127;52.078;4.370;2023-05-10T22:07:10;8.15;;;4.20;;
45388;SDS011;31127;52.078;4.370;2023-05-10T22:12:05;7.50;;;4.23;;
45388;SDS011;31127;52.078;4.370;2023-05-10T22:17:01;8.80;;;4.85;;
45388;SDS011;31127;52.078;4.370;2023-05-10T22:21:56;9.45;;;4.65;;
45388;SDS011;31127;52.078;4.370;2023-05-10T22:27:12;9.52;;;4.78;;
45388;SDS011;31127;52.078;4.370;2023-05-10T22:32:07;9.30;;;4.93;;
45388;SDS011;31127;52.078;4.370;2023-05-10T22:37:02;8.67;;;4.53;;
45388;SDS011;31127;52.078;4.370;2023-05-10T22:41:58;11.57;;;5.97;;
45388;SDS011;31127;52.078;4.370;2023-05-10T22:46:53;12.13;;;6.00;;
45388;SDS011;31127;52.078;4.370;2023-05-10T22:51:49;9.60;;;4.93;;
45388;SDS011;31127;52.078;4.370;2023-05-10T22:57:04;10.02;;;4.88;;
45388;SDS011;31127;52.078;4.370;2023-05-10T23:02:00;10.63;;;5.63;;
45388;SDS011;31127;52.078;4.370;2023-05-10T23:06:55;8.68;;;4.68;;
45388;SDS011;31127;52.078;4.370;2023-05-10T23:12:11;11.05;;;5.88;;
45388;SDS011;31127;52.078;4.370;2023-05-10T23:17:07;8.57;;;5.07;;
45388;SDS011;31127;52.078;4.370;2023-05-10T23:22:02;14.93;;;7.05;;
45388;SDS011;31127;52.078;4.370;2023-05-10T23:26:57;9.77;;;5.32;;
45388;SDS011;31127;52.078;4.370;2023-05-10T23:31:53;12.85;;;5.25;;
45388;SDS011;31127;52.078;4.370;2023-05-10T23:37:08;11.73;;;5.88;;
45388;SDS011;31127;52.078;4.370;2023-05-10T23:42:04;11.20;;;5.70;;
45388;SDS011;31127;52.078;4.370;2023-05-10T23:47:00;11.82;;;5.82;;
45388;SDS011;31127;52.078;4.370;2023-05-10T23:51:55;8.35;;;5.20;;
45388;SDS011;31127;52.078;4.370;2023-05-10T23:56:51;9.73;;;4.75;;
